createdAt,value
2016-01-18T00:00:09.661Z,-0.4
2016-01-18T00:01:08.382Z,-0.4
2016-01-18T00:02:07.104Z,-0.4
2016-01-18T00:03:05.840Z,-0.4
2016-01-18T00:04:04.640Z,-0.4
2016-01-18T00:05:06.424Z,-0.5
2016-01-18T00:06:05.380Z,-0.4
2016-01-18T00:07:04.117Z,-0.4
2016-01-18T00:08:02.854Z,-0.5
2016-01-18T00:09:01.575Z,-0.4
2016-01-18T00:10:00.328Z,-0.4
2016-01-18T00:10:59.065Z,-0.4
2016-01-18T00:11:57.787Z,-0.4
2016-01-18T00:12:56.508Z,-0.4
2016-01-18T00:13:55.308Z,-0.4
2016-01-18T00:14:57.060Z,-0.4
2016-01-18T00:15:55.797Z,-0.4
2016-01-18T00:16:54.535Z,-0.5
2016-01-18T00:17:53.256Z,-0.5
2016-01-18T00:18:51.991Z,-0.5
2016-01-18T00:19:50.727Z,-0.5
2016-01-18T00:20:49.464Z,-0.5
2016-01-18T00:21:48.186Z,-0.5
2016-01-18T00:22:46.923Z,-0.5
2016-01-18T00:23:45.722Z,-0.5
2016-01-18T00:24:47.459Z,-0.5
2016-01-18T00:25:46.228Z,-0.5
2016-01-18T00:26:44.949Z,-0.5
2016-01-18T00:27:43.671Z,-0.5
2016-01-18T00:28:42.393Z,-0.5
2016-01-18T00:29:41.129Z,-0.5
2016-01-18T00:30:39.866Z,-0.5
2016-01-18T00:31:38.604Z,-0.5
2016-01-18T00:32:37.340Z,-0.5
2016-01-18T00:33:36.124Z,-0.5
2016-01-18T00:34:37.876Z,-0.5
2016-01-18T00:35:36.629Z,-0.5
2016-01-18T00:36:35.351Z,-0.5
2016-01-18T00:37:34.073Z,-0.5
2016-01-18T00:38:32.842Z,-0.5
2016-01-18T00:39:31.547Z,-0.5
2016-01-18T00:40:30.284Z,-0.5
2016-01-18T00:41:29.020Z,-0.5
2016-01-18T00:42:27.759Z,-0.4
2016-01-18T00:43:26.542Z,-0.5
2016-01-18T00:44:28.295Z,-0.5
2016-01-18T00:45:27.032Z,-0.5
2016-01-18T00:46:25.753Z,-0.5
2016-01-18T00:47:24.507Z,-0.5
2016-01-18T00:48:23.229Z,-0.5
2016-01-18T00:49:21.963Z,-0.5
2016-01-18T00:50:20.716Z,-0.6
2016-01-18T00:51:19.422Z,-0.6
2016-01-18T00:52:18.160Z,-0.6
2016-01-18T00:53:16.974Z,-0.6
2016-01-18T00:54:18.712Z,-0.6
2016-01-18T00:55:17.448Z,-0.6
2016-01-18T00:56:16.186Z,-0.6
2016-01-18T00:57:14.907Z,-0.6
2016-01-18T00:58:13.394Z,-0.6
2016-01-18T00:59:12.115Z,-0.7
2016-01-18T01:00:10.853Z,-0.6
2016-01-18T01:01:09.590Z,-0.6
2016-01-18T01:02:08.326Z,-0.6
2016-01-18T01:03:07.111Z,-0.6
2016-01-18T01:04:08.864Z,-0.7
2016-01-18T01:05:11.179Z,-0.7
2016-01-18T01:06:13.525Z,-0.7
2016-01-18T01:07:12.011Z,-0.7
2016-01-18T01:08:10.468Z,-0.7
2016-01-18T01:09:08.940Z,-0.7
2016-01-18T01:10:07.427Z,-0.7
2016-01-18T01:11:05.897Z,-0.7
2016-01-18T01:12:04.369Z,-0.7
2016-01-18T01:13:02.903Z,-0.7
2016-01-18T01:14:04.672Z,-0.7
2016-01-18T01:15:07.002Z,-0.8
2016-01-18T01:16:09.318Z,-0.8
2016-01-18T01:17:11.649Z,-0.8
2016-01-18T01:18:10.261Z,-0.8
2016-01-18T01:19:12.451Z,-0.8
2016-01-18T01:20:14.782Z,-0.8
2016-01-18T01:21:17.097Z,-0.8
2016-01-18T01:22:19.444Z,-0.8
2016-01-18T01:23:21.806Z,-0.8
2016-01-18T01:24:23.558Z,-0.9
2016-01-18T01:25:25.875Z,-0.9
2016-01-18T01:26:28.205Z,-0.9
2016-01-18T01:27:30.536Z,-0.9
2016-01-18T01:28:32.851Z,-0.9
2016-01-18T01:29:35.182Z,-0.9
2016-01-18T01:30:37.513Z,-0.9
2016-01-18T01:31:39.827Z,-0.9
2016-01-18T01:32:42.158Z,-0.9
2016-01-18T01:33:44.535Z,-0.9
2016-01-18T01:34:46.291Z,-0.9
2016-01-18T01:35:48.623Z,-1
2016-01-18T01:36:50.968Z,-1
2016-01-18T01:37:53.269Z,-1
2016-01-18T01:38:55.599Z,-1.1
2016-01-18T01:39:57.665Z,-1.1
2016-01-18T01:40:59.729Z,-1.1
2016-01-18T01:42:02.060Z,-1.1
2016-01-18T01:43:04.392Z,-1.1
2016-01-18T01:44:06.770Z,-1.1
2016-01-18T01:45:08.553Z,-1.1
2016-01-18T01:46:10.852Z,-1.1
2016-01-18T01:47:13.168Z,-1.1
2016-01-18T01:48:15.498Z,-1.1
2016-01-18T01:49:17.845Z,-1.1
2016-01-18T01:50:20.160Z,-1.1
2016-01-18T01:51:22.475Z,-1.2
2016-01-18T01:52:24.806Z,-1.1
2016-01-18T01:53:27.122Z,-1.2
2016-01-18T01:54:29.499Z,-1.2
2016-01-18T01:55:31.267Z,-1.2
2016-01-18T01:56:33.583Z,-1.2
2016-01-18T01:57:35.913Z,-1.2
2016-01-18T01:58:38.244Z,-1.2
2016-01-18T01:59:40.560Z,-1.2
2016-01-18T02:00:42.891Z,-1.2
2016-01-18T02:01:45.221Z,-1.2
2016-01-18T02:02:47.038Z,-1.2
2016-01-18T02:03:48.855Z,-1.3
2016-01-18T02:04:50.716Z,-1.3
2016-01-18T02:05:52.468Z,-1.4
2016-01-18T02:06:54.284Z,-1.4
2016-01-18T02:07:56.115Z,-1.4
2016-01-18T02:08:57.915Z,-1.5
2016-01-18T02:09:59.729Z,-1.5
2016-01-18T02:11:01.545Z,-1.4
2016-01-18T02:12:03.360Z,-1.4
2016-01-18T02:13:05.160Z,-1.5
2016-01-18T02:14:06.975Z,-1.5
2016-01-18T02:15:08.853Z,-1.5
2016-01-18T02:16:10.606Z,-1.5
2016-01-18T02:17:12.436Z,-1.4
2016-01-18T02:18:14.236Z,-1.4
2016-01-18T02:19:16.050Z,-1.5
2016-01-18T02:20:17.866Z,-1.5
2016-01-18T02:21:19.697Z,-1.4
2016-01-18T02:22:21.481Z,-1.5
2016-01-18T02:23:23.295Z,-1.5
2016-01-18T02:24:25.111Z,-1.5
2016-01-18T02:25:26.972Z,-1.5
2016-01-18T02:26:28.741Z,-1.6
2016-01-18T02:27:30.556Z,-1.6
2016-01-18T02:28:32.106Z,-1.6
2016-01-18T02:29:33.937Z,-1.6
2016-01-18T02:30:35.736Z,-1.6
2016-01-18T02:31:37.552Z,-1.6
2016-01-18T02:32:39.366Z,-1.6
2016-01-18T02:33:41.198Z,-1.6
2016-01-18T02:34:42.997Z,-1.6
2016-01-18T02:35:44.860Z,-1.6
2016-01-18T02:36:46.627Z,-1.6
2016-01-18T02:37:48.427Z,-1.6
2016-01-18T02:38:50.277Z,-1.6
2016-01-18T02:39:51.810Z,-1.6
2016-01-18T02:40:53.359Z,-1.6
2016-01-18T02:41:54.925Z,-1.5
2016-01-18T02:42:56.474Z,-1.5
2016-01-18T02:43:58.040Z,-1.5
2016-01-18T02:44:59.589Z,-1.5
2016-01-18T02:46:01.201Z,-1.6
2016-01-18T02:47:02.970Z,-1.6
2016-01-18T02:48:04.270Z,-1.5
2016-01-18T02:49:05.569Z,-1.6
2016-01-18T02:50:06.868Z,-1.6
2016-01-18T02:51:08.168Z,-1.6
2016-01-18T02:52:09.749Z,-1.6
2016-01-18T02:53:11.283Z,-1.6
2016-01-18T02:54:12.847Z,-1.6
2016-01-18T02:55:14.398Z,-1.6
2016-01-18T02:56:16.009Z,-1.6
2016-01-18T02:57:17.778Z,-1.6
2016-01-18T02:58:19.327Z,-1.6
2016-01-18T02:59:20.892Z,-1.6
2016-01-18T03:00:22.442Z,-1.6
2016-01-18T03:01:23.741Z,-1.6
2016-01-18T03:02:25.307Z,-1.6
2016-01-18T03:03:26.607Z,-1.6
2016-01-18T03:04:28.156Z,-1.6
2016-01-18T03:05:29.721Z,-1.6
2016-01-18T03:06:31.318Z,-1.6
2016-01-18T03:07:33.086Z,-1.6
2016-01-18T03:08:34.386Z,-1.6
2016-01-18T03:09:35.685Z,-1.6
2016-01-18T03:10:36.985Z,-1.6
2016-01-18T03:11:38.284Z,-1.6
2016-01-18T03:12:39.585Z,-1.6
2016-01-18T03:13:40.884Z,-1.6
2016-01-18T03:14:42.183Z,-1.6
2016-01-18T03:15:43.482Z,-1.7
2016-01-18T03:16:44.844Z,-1.6
2016-01-18T03:17:46.598Z,-1.6
2016-01-18T03:18:47.913Z,-1.6
2016-01-18T03:19:49.196Z,-1.7
2016-01-18T03:20:50.495Z,-1.6
2016-01-18T03:21:51.798Z,-1.6
2016-01-18T03:22:53.098Z,-1.7
2016-01-18T03:23:54.397Z,-1.7
2016-01-18T03:24:55.697Z,-1.7
2016-01-18T03:25:56.997Z,-1.7
2016-01-18T03:26:58.359Z,-1.7
2016-01-18T03:28:00.111Z,-1.7
2016-01-18T03:29:01.411Z,-1.7
2016-01-18T03:30:02.711Z,-1.7
2016-01-18T03:31:04.010Z,-1.7
2016-01-18T03:32:05.325Z,-1.7
2016-01-18T03:33:06.624Z,-1.7
2016-01-18T03:34:07.925Z,-1.6
2016-01-18T03:35:09.224Z,-1.6
2016-01-18T03:37:12.401Z,-1.5
2016-01-18T03:38:14.154Z,-1.5
2016-01-18T03:39:15.704Z,-1.5
2016-01-18T03:40:17.268Z,-1.5
2016-01-18T03:41:18.568Z,-1.5
2016-01-18T03:42:19.868Z,-1.5
2016-01-18T03:43:21.167Z,-1.5
2016-01-18T03:44:22.467Z,-1.5
2016-01-18T03:45:23.781Z,-1.5
2016-01-18T03:46:25.066Z,-1.5
2016-01-18T03:47:26.179Z,-1.5
2016-01-18T03:48:27.946Z,-1.6
2016-01-18T03:49:28.715Z,-1.6
2016-01-18T03:50:29.764Z,-1.5
2016-01-18T03:51:31.065Z,-1.5
2016-01-18T03:52:32.395Z,-1.5
2016-01-18T03:53:33.663Z,-1.5
2016-01-18T03:54:34.962Z,-1.5
2016-01-18T03:55:36.261Z,-1.5
2016-01-18T03:56:37.562Z,-1.5
2016-01-18T03:57:38.924Z,-1.4
2016-01-18T03:58:40.676Z,-1.5
2016-01-18T03:59:41.975Z,-1.4
2016-01-18T04:00:43.291Z,-1.5
2016-01-18T04:01:44.575Z,-1.5
2016-01-18T04:02:45.891Z,-1.4
2016-01-18T04:03:47.185Z,-1.4
2016-01-18T04:04:48.485Z,-1.4
2016-01-18T04:05:49.785Z,-1.4
2016-01-18T04:06:51.085Z,-1.4
2016-01-18T04:07:52.446Z,-1.4
2016-01-18T04:08:54.640Z,-1.4
2016-01-18T04:09:55.517Z,-1.5
2016-01-18T04:10:56.817Z,-1.4
2016-01-18T04:11:58.100Z,-1.5
2016-01-18T04:12:59.417Z,-1.5
2016-01-18T04:14:00.715Z,-1.6
2016-01-18T04:15:02.015Z,-1.6
2016-01-18T04:16:03.299Z,-1.6
2016-01-18T04:17:04.614Z,-1.6
2016-01-18T04:18:05.961Z,-1.6
2016-01-18T04:19:07.713Z,-1.6
2016-01-18T04:20:09.013Z,-1.6
2016-01-18T04:21:10.313Z,-1.5
2016-01-18T04:22:11.627Z,-1.5
2016-01-18T04:23:12.927Z,-1.6
2016-01-18T04:24:14.211Z,-1.6
2016-01-18T04:25:15.510Z,-1.6
2016-01-18T04:26:16.826Z,-1.7
2016-01-18T04:27:18.125Z,-1.7
2016-01-18T04:28:19.472Z,-1.8
2016-01-18T04:29:21.231Z,-1.8
2016-01-18T04:30:22.617Z,-1.9
2016-01-18T04:31:23.839Z,-1.9
2016-01-18T04:32:25.398Z,-1.9
2016-01-18T04:33:26.688Z,-2
2016-01-18T04:34:28.004Z,-2
2016-01-18T04:35:29.553Z,-2
2016-01-18T04:36:31.368Z,-2
2016-01-18T04:37:33.152Z,-2.1
2016-01-18T04:38:35.030Z,-2.1
2016-01-18T04:39:36.782Z,-2.1
2016-01-18T04:40:38.598Z,-2.1
2016-01-18T04:41:40.429Z,-2.1
2016-01-18T04:42:42.245Z,-2.1
2016-01-18T04:43:44.043Z,-2.1
2016-01-18T04:44:45.875Z,-2.1
2016-01-18T04:45:47.674Z,-2.1
2016-01-18T04:46:49.489Z,-2.1
2016-01-18T04:47:51.304Z,-2.1
2016-01-18T04:48:53.166Z,-2.1
2016-01-18T04:49:54.903Z,-2.1
2016-01-18T04:50:57.003Z,-2.1
2016-01-18T04:51:58.817Z,-2.2
2016-01-18T04:53:00.633Z,-2.2
2016-01-18T04:54:02.432Z,-2.3
2016-01-18T04:55:04.233Z,-2.3
2016-01-18T04:56:06.313Z,-2.3
2016-01-18T04:57:08.378Z,-2.3
2016-01-18T04:58:10.458Z,-2.3
2016-01-18T04:59:12.586Z,-2.3
2016-01-18T05:00:14.339Z,-2.3
2016-01-18T05:01:16.404Z,-2.3
2016-01-18T05:02:18.485Z,-2.3
2016-01-18T05:03:20.566Z,-2.3
2016-01-18T05:04:22.647Z,-2.3
2016-01-18T05:05:24.697Z,-2.3
2016-01-18T05:06:26.777Z,-2.3
2016-01-18T05:07:28.843Z,-2.3
2016-01-18T05:08:30.924Z,-2.3
2016-01-18T05:09:33.051Z,-2.3
2016-01-18T05:10:34.820Z,-2.4
2016-01-18T05:11:36.884Z,-2.4
2016-01-18T05:12:38.966Z,-2.4
2016-01-18T05:13:41.031Z,-2.5
2016-01-18T05:14:43.127Z,-2.6
2016-01-18T05:15:44.911Z,-2.6
2016-01-18T05:16:47.256Z,-2.5
2016-01-18T05:17:49.573Z,-2.5
2016-01-18T05:18:51.904Z,-2.5
2016-01-18T05:19:54.297Z,-2.5
2016-01-18T05:20:56.049Z,-2.5
2016-01-18T05:21:58.383Z,-2.5
2016-01-18T05:23:00.714Z,-2.5
2016-01-18T05:24:03.060Z,-2.5
2016-01-18T05:25:05.360Z,-2.5
2016-01-18T05:26:07.691Z,-2.5
2016-01-18T05:27:10.021Z,-2.5
2016-01-18T05:28:12.352Z,-2.5
2016-01-18T05:29:14.683Z,-2.5
2016-01-18T05:30:17.061Z,-2.5
2016-01-18T05:31:18.830Z,-2.5
2016-01-18T05:32:21.144Z,-2.6
2016-01-18T05:33:23.475Z,-2.6
2016-01-18T05:34:25.806Z,-2.6
2016-01-18T05:35:28.152Z,-2.6
2016-01-18T05:36:30.468Z,-2.6
2016-01-18T05:37:32.798Z,-2.6
2016-01-18T05:38:35.129Z,-2.6
2016-01-18T05:39:37.460Z,-2.6
2016-01-18T05:40:39.838Z,-2.6
2016-01-18T05:41:41.590Z,-2.6
2016-01-18T05:42:43.921Z,-2.6
2016-01-18T05:43:46.251Z,-2.6
2016-01-18T05:44:48.583Z,-2.7
2016-01-18T05:45:50.914Z,-2.7
2016-01-18T05:46:53.244Z,-2.7
2016-01-18T05:47:55.575Z,-2.7
2016-01-18T05:48:57.905Z,-2.7
2016-01-18T05:50:00.239Z,-2.7
2016-01-18T05:51:02.617Z,-2.7
2016-01-18T05:52:04.385Z,-2.7
2016-01-18T05:53:06.717Z,-2.7
2016-01-18T05:54:05.219Z,-2.7
2016-01-18T05:55:07.519Z,-2.7
2016-01-18T05:56:09.864Z,-2.7
2016-01-18T05:57:12.180Z,-2.7
2016-01-18T05:58:14.511Z,-2.7
2016-01-18T05:59:16.842Z,-2.7
2016-01-18T06:00:19.172Z,-2.7
2016-01-18T06:01:21.550Z,-2.7
2016-01-18T06:02:23.319Z,-2.7
2016-01-18T06:03:25.665Z,-2.7
2016-01-18T06:04:27.980Z,-2.7
2016-01-18T06:05:30.310Z,-2.7
2016-01-18T06:06:32.642Z,-2.7
2016-01-18T06:07:34.973Z,-2.7
2016-01-18T06:08:37.304Z,-2.8
2016-01-18T06:09:39.618Z,-2.7
2016-01-18T06:10:41.949Z,-2.7
2016-01-18T06:11:40.499Z,-2.7
2016-01-18T06:12:42.251Z,-2.8
2016-01-18T06:13:40.754Z,-2.8
2016-01-18T06:14:39.210Z,-2.8
2016-01-18T06:15:41.540Z,-2.8
2016-01-18T06:16:43.872Z,-2.8
2016-01-18T06:17:42.359Z,-2.8
2016-01-18T06:18:40.846Z,-2.8
2016-01-18T06:19:39.333Z,-2.8
2016-01-18T06:20:37.820Z,-2.8
2016-01-18T06:21:36.370Z,-2.7
2016-01-18T06:22:38.123Z,-2.8
2016-01-18T06:23:36.594Z,-2.8
2016-01-18T06:24:35.065Z,-2.8
2016-01-18T06:25:33.552Z,-2.9
2016-01-18T06:26:32.039Z,-2.9
2016-01-18T06:27:30.511Z,-3
2016-01-18T06:28:28.998Z,-3
2016-01-18T06:29:27.485Z,-3
2016-01-18T06:30:25.972Z,-3
2016-01-18T06:31:24.772Z,-2.9
2016-01-18T06:32:26.525Z,-2.9
2016-01-18T06:33:25.011Z,-2.9
2016-01-18T06:34:23.499Z,-3
2016-01-18T06:35:21.970Z,-3
2016-01-18T06:36:20.472Z,-3
2016-01-18T06:37:18.929Z,-3
2016-01-18T06:38:17.432Z,-3
2016-01-18T06:39:15.903Z,-3.1
2016-01-18T06:40:18.249Z,-3.1
2016-01-18T06:41:20.642Z,-3.2
2016-01-18T06:42:22.396Z,-3.2
2016-01-18T06:43:24.726Z,-3.2
2016-01-18T06:44:23.198Z,-3.2
2016-01-18T06:45:25.528Z,-3.3
2016-01-18T06:46:24.015Z,-3.3
2016-01-18T06:47:26.346Z,-3.2
2016-01-18T06:48:24.834Z,-3.2
2016-01-18T06:49:23.336Z,-3.2
2016-01-18T06:50:25.651Z,-3.1
2016-01-18T06:51:28.028Z,-3.2
2016-01-18T06:52:29.798Z,-3.2
2016-01-18T06:53:32.128Z,-3.2
2016-01-18T06:54:34.459Z,-3.2
2016-01-18T06:55:36.773Z,-3.2
2016-01-18T06:56:35.261Z,-3.2
2016-01-18T06:57:33.764Z,-3.2
2016-01-18T06:58:32.235Z,-3.2
2016-01-18T06:59:30.706Z,-3.1
2016-01-18T07:00:29.194Z,-3.1
2016-01-18T07:01:27.994Z,-3.1
2016-01-18T07:02:29.746Z,-3.1
2016-01-18T07:03:28.499Z,-3.1
2016-01-18T07:04:27.235Z,-3.1
2016-01-18T07:05:25.973Z,-3.1
2016-01-18T07:06:24.710Z,-3.1
2016-01-18T07:07:23.447Z,-3.1
2016-01-18T07:08:22.183Z,-3.1
2016-01-18T07:09:20.922Z,-3.1
2016-01-18T07:10:19.673Z,-3.1
2016-01-18T07:11:18.458Z,-3.1
2016-01-18T07:12:20.226Z,-3.1
2016-01-18T07:13:18.962Z,-3.1
2016-01-18T07:14:17.716Z,-3.1
2016-01-18T07:15:16.468Z,-3.1
2016-01-18T07:16:15.190Z,-3.1
2016-01-18T07:17:13.927Z,-3.1
2016-01-18T07:18:12.664Z,-3.1
2016-01-18T07:19:11.417Z,-3.2
2016-01-18T07:20:10.137Z,-3.1
2016-01-18T07:21:08.950Z,-3.2
2016-01-18T07:22:10.737Z,-3.2
2016-01-18T07:23:09.471Z,-3.2
2016-01-18T07:24:08.193Z,-3.1
2016-01-18T07:25:06.915Z,-3.1
2016-01-18T07:26:05.651Z,-3.1
2016-01-18T07:27:04.389Z,-3.1
2016-01-18T07:28:03.141Z,-3.2
2016-01-18T07:29:01.879Z,-3.1
2016-01-18T07:30:00.615Z,-3.1
2016-01-18T07:30:59.414Z,-3.1
2016-01-18T07:32:01.184Z,-3.1
2016-01-18T07:32:59.920Z,-3.1
2016-01-18T07:33:58.673Z,-3
2016-01-18T07:34:57.394Z,-3
2016-01-18T07:35:56.131Z,-3.1
2016-01-18T07:36:54.884Z,-3
2016-01-18T07:37:53.621Z,-3
2016-01-18T07:38:52.358Z,-3
2016-01-18T07:39:51.096Z,-3
2016-01-18T07:40:49.895Z,-3
2016-01-18T07:41:51.648Z,-3
2016-01-18T07:42:50.385Z,-3
2016-01-18T07:43:49.138Z,-3
2016-01-18T07:44:47.875Z,-3
2016-01-18T07:45:46.612Z,-3.1
2016-01-18T07:46:45.348Z,-3
2016-01-18T07:47:44.085Z,-3
2016-01-18T07:48:42.823Z,-3.1
2016-01-18T07:49:41.560Z,-3.1
2016-01-18T07:50:40.359Z,-3
2016-01-18T07:51:42.128Z,-3
2016-01-18T07:52:40.864Z,-2.9
2016-01-18T07:53:39.601Z,-3
2016-01-18T07:54:38.355Z,-2.9
2016-01-18T07:55:37.092Z,-3
2016-01-18T07:56:35.844Z,-2.9
2016-01-18T07:57:34.565Z,-2.9
2016-01-18T07:58:33.303Z,-2.9
2016-01-18T07:59:32.056Z,-2.8
2016-01-18T08:00:30.840Z,-2.9
2016-01-18T08:01:32.623Z,-2.9
2016-01-18T08:02:31.594Z,-2.8
2016-01-18T08:03:30.598Z,-2.8
2016-01-18T08:04:29.584Z,-2.8
2016-01-18T08:05:28.587Z,-2.8
2016-01-18T08:06:27.589Z,-2.8
2016-01-18T08:07:26.592Z,-2.8
2016-01-18T08:08:25.580Z,-2.8
2016-01-18T08:09:24.566Z,-2.7
2016-01-18T08:10:23.616Z,-2.8
2016-01-18T08:11:25.385Z,-2.7
2016-01-18T08:12:24.371Z,-2.7
2016-01-18T08:13:23.374Z,-2.8
2016-01-18T08:14:22.377Z,-2.8
2016-01-18T08:15:21.364Z,-2.7
2016-01-18T08:16:20.367Z,-2.7
2016-01-18T08:17:19.354Z,-2.7
2016-01-18T08:18:18.607Z,-2.6
2016-01-18T08:19:17.591Z,-2.6
2016-01-18T08:20:16.688Z,-2.6
2016-01-18T08:21:18.409Z,-2.6
2016-01-18T08:22:17.396Z,-2.6
2016-01-18T08:23:16.149Z,-2.6
2016-01-18T08:24:14.885Z,-2.6
2016-01-18T08:25:13.873Z,-2.6
2016-01-18T08:26:12.876Z,-2.5
2016-01-18T08:27:11.894Z,-2.5
2016-01-18T08:28:10.867Z,-2.4
2016-01-18T08:29:09.868Z,-2.4
2016-01-18T08:30:08.919Z,-2.4
2016-01-18T08:31:10.702Z,-2.4
2016-01-18T08:32:09.408Z,-2.3
2016-01-18T08:33:08.146Z,-2.3
2016-01-18T08:34:06.883Z,-2.3
2016-01-18T08:35:05.620Z,-2.3
2016-01-18T08:36:04.357Z,-2.2
2016-01-18T08:37:03.094Z,-2.2
2016-01-18T08:38:01.846Z,-2.1
2016-01-18T08:39:00.584Z,-2.2
2016-01-18T08:39:59.367Z,-2.1
2016-01-18T08:41:01.136Z,-2.1
2016-01-18T08:41:59.873Z,-2.1
2016-01-18T08:42:58.605Z,-2.1
2016-01-18T08:43:57.329Z,-2.1
2016-01-18T08:44:55.787Z,-2.1
2016-01-18T08:45:54.261Z,-2.1
2016-01-18T08:46:56.890Z,-2.2
2016-01-18T08:47:55.039Z,-2.1
2016-01-18T08:48:53.521Z,-2.1
2016-01-18T08:49:52.066Z,-2.1
2016-01-18T08:50:53.813Z,-2.1
2016-01-18T08:51:56.170Z,-2
2016-01-18T08:52:58.482Z,-2
2016-01-18T08:54:00.811Z,-2
2016-01-18T08:55:03.141Z,-2
2016-01-18T08:56:05.454Z,-1.9
2016-01-18T08:57:07.784Z,-1.9
2016-01-18T08:58:10.144Z,-1.9
2016-01-18T08:59:12.443Z,-1.9
2016-01-18T09:00:14.819Z,-1.9
2016-01-18T09:01:16.587Z,-1.9
2016-01-18T09:02:18.901Z,-1.9
2016-01-18T09:03:21.232Z,-1.9
2016-01-18T09:04:23.609Z,-1.8
2016-01-18T09:05:25.892Z,-1.9
2016-01-18T09:06:28.239Z,-1.8
2016-01-18T09:07:30.304Z,-1.8
2016-01-18T09:08:32.385Z,-1.9
2016-01-18T09:09:34.199Z,-1.9
2016-01-18T09:10:36.045Z,-1.8
2016-01-18T09:11:37.814Z,-1.9
2016-01-18T09:12:39.910Z,-1.9
2016-01-18T09:13:41.742Z,-1.9
2016-01-18T09:14:43.526Z,-1.8
2016-01-18T09:15:45.340Z,-1.8
2016-01-18T09:16:47.159Z,-1.8
2016-01-18T09:17:48.974Z,-1.7
2016-01-18T09:18:50.790Z,-1.7
2016-01-18T09:19:52.605Z,-1.7
2016-01-18T09:20:54.468Z,-1.7
2016-01-18T09:21:56.220Z,-1.7
2016-01-18T09:22:57.785Z,-1.7
2016-01-18T09:23:59.601Z,-1.6
2016-01-18T09:25:01.415Z,-1.6
2016-01-18T09:26:02.965Z,-1.7
2016-01-18T09:27:04.264Z,-1.6
2016-01-18T09:28:05.579Z,-1.6
2016-01-18T09:29:06.879Z,-1.6
2016-01-18T09:30:08.179Z,-1.7
2016-01-18T09:31:09.541Z,-1.7
2016-01-18T09:32:11.294Z,-1.7
2016-01-18T09:33:12.625Z,-1.7
2016-01-18T09:34:13.892Z,-1.6
2016-01-18T09:35:15.208Z,-1.6
2016-01-18T09:36:16.507Z,-1.5
2016-01-18T09:37:17.808Z,-1.5
2016-01-18T09:38:19.106Z,-1.4
2016-01-18T09:39:20.406Z,-1.3
2016-01-18T09:40:21.721Z,-1.3
2016-01-18T09:41:23.068Z,-1.3
2016-01-18T09:42:24.835Z,-1.2
2016-01-18T09:43:25.870Z,-1.2
2016-01-18T09:44:26.685Z,-1.1
2016-01-18T09:45:27.454Z,-1.1
2016-01-18T09:46:28.253Z,-1.1
2016-01-18T09:47:28.771Z,-1.1
2016-01-18T09:48:29.555Z,-1
2016-01-18T09:49:30.355Z,-0.9
2016-01-18T09:50:31.138Z,-0.9
2016-01-18T09:51:31.986Z,-0.8
2016-01-18T09:52:33.737Z,-0.7
2016-01-18T09:53:34.271Z,-0.7
2016-01-18T09:54:34.540Z,-0.7
2016-01-18T09:55:34.559Z,-0.7
2016-01-18T09:56:34.577Z,-0.7
2016-01-18T09:57:34.345Z,-0.7
2016-01-18T09:58:34.098Z,-0.7
2016-01-18T09:59:33.898Z,-0.6
2016-01-18T10:00:33.619Z,-0.7
2016-01-18T10:01:33.450Z,-0.6
2016-01-18T10:02:35.223Z,-0.5
2016-01-18T10:03:34.970Z,-0.5
2016-01-18T10:04:34.721Z,-0.5
2016-01-18T10:05:34.255Z,-0.5
2016-01-18T10:06:33.726Z,-0.5
2016-01-18T10:07:33.261Z,-0.5
2016-01-18T10:08:32.497Z,-0.4
2016-01-18T10:09:31.766Z,-0.4
2016-01-18T10:10:31.003Z,-0.3
2016-01-18T10:11:30.318Z,-0.3
2016-01-18T10:12:32.071Z,-0.3
2016-01-18T10:13:31.308Z,-0.3
2016-01-18T10:14:30.295Z,-0.2
2016-01-18T10:15:29.548Z,-0.1
2016-01-18T10:16:28.800Z,-0.1
2016-01-18T10:17:27.788Z,-0.1
2016-01-18T10:18:26.524Z,0
2016-01-18T10:19:25.262Z,0.1
2016-01-18T10:20:23.983Z,0.1
2016-01-18T10:21:22.549Z,0.1
2016-01-18T10:22:24.285Z,0.1
2016-01-18T10:23:26.945Z,0.1
2016-01-18T10:24:28.682Z,0.1
2016-01-18T10:25:31.013Z,0.2
2016-01-18T10:26:33.343Z,0.2
2016-01-18T10:27:35.673Z,0.2
2016-01-18T10:28:37.990Z,0.3
2016-01-18T10:29:40.305Z,0.3
2016-01-18T10:30:42.370Z,0.3
2016-01-18T10:31:44.481Z,0.3
2016-01-18T10:32:46.234Z,0.3
2016-01-18T10:33:48.049Z,0.4
2016-01-18T10:34:50.131Z,0.3
2016-01-18T10:35:51.945Z,0.3
2016-01-18T10:36:53.761Z,0.3
2016-01-18T10:37:55.294Z,0.4
2016-01-18T10:38:57.109Z,0.4
2016-01-18T10:39:58.909Z,0.5
2016-01-18T10:41:00.725Z,0.5
2016-01-18T10:42:02.352Z,0.6
2016-01-18T10:43:04.089Z,0.5
2016-01-18T10:44:05.389Z,0.6
2016-01-18T10:45:06.673Z,0.6
2016-01-18T10:46:07.738Z,0.6
2016-01-18T10:47:08.772Z,0.7
2016-01-18T10:48:09.806Z,0.7
2016-01-18T10:49:10.589Z,0.7
2016-01-18T10:50:11.374Z,0.7
2016-01-18T10:51:12.189Z,0.8
2016-01-18T10:52:13.005Z,0.8
2016-01-18T10:53:14.757Z,0.9
2016-01-18T10:54:15.559Z,0.9
2016-01-18T10:55:16.063Z,0.9
2016-01-18T10:56:16.361Z,0.9
2016-01-18T10:57:16.629Z,1
2016-01-18T10:58:16.882Z,1
2016-01-18T10:59:17.150Z,1
2016-01-18T11:00:17.169Z,1.1
2016-01-18T11:01:17.171Z,1.1
2016-01-18T11:02:17.252Z,1.1
2016-01-18T11:03:19.004Z,1.2
2016-01-18T11:04:18.773Z,1.1
2016-01-18T11:05:18.510Z,1.1
2016-01-18T11:06:18.279Z,1.1
2016-01-18T11:07:18.031Z,1.1
2016-01-18T11:08:17.784Z,1.1
2016-01-18T11:09:17.537Z,1
2016-01-18T11:10:17.306Z,1
2016-01-18T11:11:17.058Z,0.9
2016-01-18T11:12:16.873Z,0.9
2016-01-18T11:13:18.642Z,0.8
2016-01-18T11:14:18.628Z,0.7
2016-01-18T11:15:18.662Z,0.6
2016-01-18T11:16:18.930Z,0.6
2016-01-18T11:17:19.200Z,0.6
2016-01-18T11:18:19.452Z,0.5
2016-01-18T11:19:19.986Z,0.5
2016-01-18T11:20:20.769Z,0.4
2016-01-18T11:21:21.553Z,0.4
2016-01-18T11:22:22.400Z,0.3
2016-01-18T11:23:24.153Z,0.2
2016-01-18T11:24:24.921Z,0.1
2016-01-18T11:25:25.971Z,0.1
2016-01-18T11:26:27.270Z,0.1
2016-01-18T11:27:28.570Z,0
2016-01-18T11:28:29.869Z,0
2016-01-18T11:29:31.403Z,-0.1
2016-01-18T11:30:32.968Z,-0.1
2016-01-18T11:31:34.768Z,-0.1
2016-01-18T11:32:36.630Z,-0.3
2016-01-18T11:33:38.382Z,-0.3
2016-01-18T11:34:40.213Z,-0.2
2016-01-18T11:35:42.279Z,-0.3
2016-01-18T11:36:44.594Z,-0.3
2016-01-18T11:37:46.659Z,-0.4
2016-01-18T11:38:48.724Z,-0.4
2016-01-18T11:39:50.790Z,-0.4
2016-01-18T11:40:52.605Z,-0.4
2016-01-18T11:41:54.420Z,-0.5
2016-01-18T11:42:56.282Z,-0.5
2016-01-18T11:43:58.034Z,-0.5
2016-01-18T11:45:00.100Z,-0.5
2016-01-18T11:46:02.165Z,-0.5
2016-01-18T11:47:04.246Z,-0.5
2016-01-18T11:48:06.327Z,-0.6
2016-01-18T11:49:08.625Z,-0.7
2016-01-18T11:50:10.958Z,-0.7
2016-01-18T11:51:13.288Z,-0.7
2016-01-18T11:52:15.603Z,-0.7
2016-01-18T11:53:17.980Z,-0.7
2016-01-18T11:54:19.736Z,-0.7
2016-01-18T11:56:24.397Z,-0.7
2016-01-18T11:57:22.885Z,-0.8
2016-01-18T11:58:21.357Z,-0.8
2016-01-18T11:59:19.827Z,-0.8
2016-01-18T12:00:22.158Z,-0.8
2016-01-18T12:01:24.474Z,-0.9
2016-01-18T12:02:22.961Z,-0.9
2016-01-18T12:03:21.495Z,-0.9
2016-01-18T12:04:23.248Z,-0.9
2016-01-18T12:05:21.718Z,-0.9
2016-01-18T12:06:24.050Z,-1
2016-01-18T12:07:26.381Z,-1
2016-01-18T12:08:28.712Z,-1
2016-01-18T12:09:31.042Z,-1
2016-01-18T12:10:33.356Z,-1
2016-01-18T12:11:35.673Z,-1
2016-01-18T12:12:38.020Z,-1
2016-01-18T12:13:40.381Z,-1
2016-01-18T12:14:42.133Z,-1
2016-01-18T12:15:44.198Z,-1
2016-01-18T12:16:46.281Z,-1
2016-01-18T12:17:48.611Z,-1
2016-01-18T12:18:50.675Z,-1
2016-01-18T12:19:52.584Z,-1
2016-01-18T12:20:54.806Z,-1.1
2016-01-18T12:21:57.137Z,-1
2016-01-18T12:22:59.467Z,-1.1
2016-01-18T12:24:01.845Z,-1
2016-01-18T12:25:03.598Z,-1
2016-01-18T12:26:05.929Z,-1
2016-01-18T12:27:08.244Z,-1
2016-01-18T12:28:10.575Z,-1
2016-01-18T12:29:12.906Z,-1
2016-01-18T12:30:15.221Z,-1
2016-01-18T12:31:17.552Z,-1
2016-01-18T12:32:19.616Z,-1
2016-01-18T12:33:21.701Z,-1
2016-01-18T12:34:23.813Z,-1
2016-01-18T12:35:25.565Z,-1
2016-01-18T12:36:27.755Z,-1
2016-01-18T12:37:29.195Z,-1.1
2016-01-18T12:38:31.261Z,-1
2016-01-18T12:39:33.592Z,-1
2016-01-18T12:40:35.922Z,-1.1
2016-01-18T12:41:37.988Z,-1.1
2016-01-18T12:42:40.053Z,-1.1
2016-01-18T12:43:42.134Z,-1.1
2016-01-18T12:44:44.511Z,-1.1
2016-01-18T12:45:46.264Z,-1.1
2016-01-18T12:46:48.360Z,-1.1
2016-01-18T12:47:50.409Z,-1.1
2016-01-18T12:48:52.209Z,-1.1
2016-01-18T12:49:54.289Z,-1.1
2016-01-18T12:50:56.355Z,-1.1
2016-01-18T12:51:58.420Z,-1.1
2016-01-18T12:53:00.502Z,-1.1
2016-01-18T12:54:02.567Z,-1.1
2016-01-18T12:55:04.694Z,-1.1
2016-01-18T12:56:06.447Z,-1.1
2016-01-18T12:57:08.778Z,-1.1
2016-01-18T12:58:11.094Z,-1.1
2016-01-18T12:59:13.424Z,-1.1
2016-01-18T13:00:15.754Z,-1.1
2016-01-18T13:01:18.086Z,-1.1
2016-01-18T13:02:20.401Z,-1.1
2016-01-18T13:03:22.734Z,-1.1
2016-01-18T13:04:25.065Z,-1.1
2016-01-18T13:05:27.443Z,-1.1
2016-01-18T13:06:29.196Z,-1.1
2016-01-18T13:07:31.526Z,-1.1
2016-01-18T13:08:33.591Z,-1.1
2016-01-18T13:09:35.922Z,-1.1
2016-01-18T13:10:37.988Z,-1.1
2016-01-18T13:11:40.318Z,-1.1
2016-01-18T13:12:42.384Z,-1.1
2016-01-18T13:13:44.714Z,-1.1
2016-01-18T13:14:47.029Z,-1.1
2016-01-18T13:15:49.423Z,-1.2
2016-01-18T13:16:51.175Z,-1.2
2016-01-18T13:17:53.506Z,-1.1
2016-01-18T13:18:55.822Z,-1.1
2016-01-18T13:19:54.308Z,-1.1
2016-01-18T13:20:53.045Z,-1.1
2016-01-18T13:21:51.798Z,-1.1
2016-01-18T13:22:50.519Z,-1.1
2016-01-18T13:23:49.257Z,-1.1
2016-01-18T13:24:47.994Z,-1.1
2016-01-18T13:25:46.778Z,-1.1
2016-01-18T13:26:48.531Z,-1.1
2016-01-18T13:27:47.017Z,-1.2
2016-01-18T13:28:45.489Z,-1.2
2016-01-18T13:29:43.976Z,-1.2
2016-01-18T13:30:42.448Z,-1.2
2016-01-18T13:31:41.185Z,-1.2
2016-01-18T13:32:39.921Z,-1.2
2016-01-18T13:33:38.393Z,-1.3
2016-01-18T13:34:36.880Z,-1.3
2016-01-18T13:35:35.414Z,-1.3
2016-01-18T13:36:37.167Z,-1.3
2016-01-18T13:37:35.904Z,-1.3
2016-01-18T13:38:34.390Z,-1.3